Time;durP1;ratioP1;P1;durP2;ratioP2;P2;SDS_P1;SDS_P2;PMS_P1;PMS_P2;Temp;Humidity;BMP_temperature;BMP_pressure;BME280_temperature;BME280_humidity;BME280_pressure;Samples;Min_cycle;Max_cycle;Signal;HPM_P1;HPM_P2
2021/09/08 00:00:15;;;;;;;17.35;11.43;;;;;;;;;;5031259;28;20068;-74
2021/09/08 00:03:00;;;;;;;19.08;11.85;;;;;;;;;;5031665;28;20091;-74
2021/09/08 00:05:45;;;;;;;15.95;10.95;;;;;;;;;;5042425;28;20036;-74
2021/09/08 00:08:29;;;;;;;16.17;11.77;;;;;;;;;;5045895;28;20043;-73
2021/09/08 00:11:14;;;;;;;15.73;11.68;;;;;;;;;;5046269;28;20040;-73
2021/09/08 00:13:58;;;;;;;18.48;12.02;;;;;;;;;;5046403;28;20714;-72
2021/09/08 00:16:43;;;;;;;17.20;11.32;;;;;;;;;;5027074;28;20090;-72
2021/09/08 00:19:27;;;;;;;17.02;11.60;;;;;;;;;;5045426;28;20539;-72
2021/09/08 00:22:12;;;;;;;16.17;10.80;;;;;;;;;;5045295;28;20410;-73
2021/09/08 00:24:57;;;;;;;15.77;11.80;;;;;;;;;;5045652;28;20044;-73
2021/09/08 00:27:41;;;;;;;17.15;11.35;;;;;;;;;;5030889;28;20109;-73
2021/09/08 00:30:25;;;;;;;16.52;11.70;;;;;;;;;;5043483;28;20122;-73
2021/09/08 00:33:10;;;;;;;17.08;11.63;;;;;;;;;;5045832;28;20032;-72
2021/09/08 00:35:55;;;;;;;17.95;12.30;;;;;;;;;;5044490;28;20497;-73
2021/09/08 00:38:39;;;;;;;16.75;11.00;;;;;;;;;;5044366;28;20060;-73
2021/09/08 00:41:24;;;;;;;19.42;12.10;;;;;;;;;;5045894;28;20082;-72
2021/09/08 00:44:09;;;;;;;18.25;12.70;;;;;;;;;;5044563;28;20070;-72
2021/09/08 00:46:57;;;;;;;17.27;12.25;;;;;;;;;;5042798;28;20075;-73
2021/09/08 00:49:42;;;;;;;17.35;12.00;;;;;;;;;;5044333;28;20114;-73
2021/09/08 00:52:26;;;;;;;17.30;12.18;;;;;;;;;;5044290;28;20444;-72
2021/09/08 00:55:11;;;;;;;16.40;11.65;;;;;;;;;;5045041;28;20051;-72
2021/09/08 00:57:56;;;;;;;15.85;12.13;;;;;;;;;;5025816;28;20548;-72
2021/09/08 01:00:41;;;;;;;17.33;11.80;;;;;;;;;;5045136;28;20098;-72
2021/09/08 01:03:25;;;;;;;15.05;11.85;;;;;;;;;;5030809;28;20792;-72
2021/09/08 01:06:10;;;;;;;16.88;12.07;;;;;;;;;;5045672;28;20040;-72
2021/09/08 01:08:54;;;;;;;16.05;11.57;;;;;;;;;;5040658;28;20082;-72
2021/09/08 01:11:39;;;;;;;16.35;11.63;;;;;;;;;;5042758;28;20039;-72
2021/09/08 01:14:23;;;;;;;14.02;11.07;;;;;;;;;;5044489;28;20044;-72
2021/09/08 01:17:08;;;;;;;16.20;11.85;;;;;;;;;;5022189;28;20047;-73
2021/09/08 01:19:53;;;;;;;16.85;12.45;;;;;;;;;;5033279;28;20440;-73
2021/09/08 01:22:41;;;;;;;16.77;11.73;;;;;;;;;;5048596;28;20106;-76
2021/09/08 01:25:27;;;;;;;15.10;11.20;;;;;;;;;;5048546;28;20044;-73
2021/09/08 01:28:11;;;;;;;16.33;11.82;;;;;;;;;;5049569;28;20087;-74
2021/09/08 01:30:56;;;;;;;14.10;10.02;;;;;;;;;;5048848;28;20513;-73
2021/09/08 01:33:43;;;;;;;15.27;11.35;;;;;;;;;;5048033;28;20556;-73
2021/09/08 01:36:28;;;;;;;12.30;9.68;;;;;;;;;;5049051;28;20036;-73
2021/09/08 01:39:16;;;;;;;12.68;9.45;;;;;;;;;;5048492;28;20036;-73
2021/09/08 01:42:01;;;;;;;15.68;11.13;;;;;;;;;;5048445;28;20071;-73
2021/09/08 01:44:46;;;;;;;13.57;9.77;;;;;;;;;;5047759;28;20647;-73
2021/09/08 01:47:30;;;;;;;12.57;9.93;;;;;;;;;;5035255;28;20489;-73
2021/09/08 01:50:15;;;;;;;13.75;10.25;;;;;;;;;;5043736;28;20040;-72
2021/09/08 01:52:59;;;;;;;14.68;9.93;;;;;;;;;;5029194;28;20083;-72
2021/09/08 01:55:44;;;;;;;15.05;10.88;;;;;;;;;;5046616;28;20124;-73
2021/09/08 01:58:31;;;;;;;12.93;10.10;;;;;;;;;;5049660;28;20044;-72
2021/09/08 02:01:15;;;;;;;11.30;9.13;;;;;;;;;;5029097;28;20499;-73
2021/09/08 02:04:00;;;;;;;13.35;9.75;;;;;;;;;;5040580;28;20094;-73
2021/09/08 02:06:48;;;;;;;11.88;9.50;;;;;;;;;;5049763;28;20099;-72
2021/09/08 02:09:33;;;;;;;12.07;9.35;;;;;;;;;;5028523;28;20032;-72
2021/09/08 02:12:17;;;;;;;12.48;9.43;;;;;;;;;;5049521;28;20107;-72
2021/09/08 02:15:02;;;;;;;12.23;10.13;;;;;;;;;;5050794;28;20048;-72
2021/09/08 02:17:47;;;;;;;13.20;9.77;;;;;;;;;;5049555;28;20118;-72
2021/09/08 02:20:31;;;;;;;11.73;9.90;;;;;;;;;;5049211;28;20103;-72
2021/09/08 02:23:16;;;;;;;12.75;10.38;;;;;;;;;;5049506;28;20183;-72
2021/09/08 02:26:00;;;;;;;10.70;8.93;;;;;;;;;;5027908;28;20036;-72
2021/09/08 02:28:45;;;;;;;13.85;10.25;;;;;;;;;;5048911;28;20040;-72
2021/09/08 02:31:29;;;;;;;12.77;9.77;;;;;;;;;;5034525;28;20044;-72
2021/09/08 02:34:14;;;;;;;11.38;8.63;;;;;;;;;;5049636;28;20059;-72
2021/09/08 02:36:58;;;;;;;12.43;9.40;;;;;;;;;;5050026;28;20627;-72
2021/09/08 02:39:43;;;;;;;11.70;9.50;;;;;;;;;;5045332;28;20044;-72
2021/09/08 02:42:27;;;;;;;12.45;9.20;;;;;;;;;;5023490;28;20056;-72
2021/09/08 02:45:12;;;;;;;11.88;8.82;;;;;;;;;;5048906;28;20027;-72
2021/09/08 02:47:56;;;;;;;11.48;9.30;;;;;;;;;;5050402;28;20075;-72
2021/09/08 02:50:40;;;;;;;13.43;9.88;;;;;;;;;;5027930;28;20842;-71
2021/09/08 02:53:25;;;;;;;11.82;9.13;;;;;;;;;;5039689;28;20052;-72
2021/09/08 02:56:10;;;;;;;11.50;9.02;;;;;;;;;;5045871;28;20814;-72
2021/09/08 02:58:55;;;;;;;13.50;9.60;;;;;;;;;;5049325;28;20043;-72
2021/09/08 03:01:39;;;;;;;10.75;8.50;;;;;;;;;;5048309;28;20055;-71
2021/09/08 03:04:24;;;;;;;12.13;9.25;;;;;;;;;;5035366;28;20069;-74
2021/09/08 03:07:09;;;;;;;12.18;9.77;;;;;;;;;;5027098;28;20035;-71
2021/09/08 03:09:53;;;;;;;12.20;9.07;;;;;;;;;;5048264;28;20044;-71
2021/09/08 03:12:38;;;;;;;10.90;8.98;;;;;;;;;;5016765;28;20114;-72
2021/09/08 03:15:22;;;;;;;10.95;9.02;;;;;;;;;;5047314;28;20036;-72
2021/09/08 03:18:07;;;;;;;12.60;9.57;;;;;;;;;;5047991;28;20086;-72
2021/09/08 03:20:52;;;;;;;12.30;9.52;;;;;;;;;;5048032;28;20067;-71
2021/09/08 03:23:36;;;;;;;10.82;8.57;;;;;;;;;;5032649;28;20102;-72
2021/09/08 03:26:21;;;;;;;12.05;9.32;;;;;;;;;;5047602;28;20214;-71
2021/09/08 03:29:05;;;;;;;11.50;8.55;;;;;;;;;;5024342;28;20461;-71
2021/09/08 03:31:50;;;;;;;10.15;8.35;;;;;;;;;;5029485;28;20122;-72
2021/09/08 03:34:34;;;;;;;13.10;9.68;;;;;;;;;;5033456;28;20067;-72
2021/09/08 03:37:18;;;;;;;13.38;9.55;;;;;;;;;;5032470;28;20079;-72
2021/09/08 03:40:03;;;;;;;11.63;9.07;;;;;;;;;;5021211;28;20064;-72
2021/09/08 03:42:48;;;;;;;11.77;8.98;;;;;;;;;;5028960;28;20051;-72
2021/09/08 03:45:33;;;;;;;11.90;9.05;;;;;;;;;;5033791;28;20520;-72
2021/09/08 03:48:17;;;;;;;12.85;9.00;;;;;;;;;;5037303;28;20454;-72
2021/09/08 03:51:02;;;;;;;10.57;8.70;;;;;;;;;;5046054;28;20068;-72
2021/09/08 03:53:46;;;;;;;12.20;8.98;;;;;;;;;;5044460;28;20043;-72
2021/09/08 03:56:30;;;;;;;12.82;9.38;;;;;;;;;;5047847;28;20086;-72
2021/09/08 03:59:15;;;;;;;12.63;9.15;;;;;;;;;;5028043;28;20543;-72
2021/09/08 04:01:59;;;;;;;11.40;8.80;;;;;;;;;;5033716;28;20136;-73
2021/09/08 04:04:44;;;;;;;12.63;8.73;;;;;;;;;;5046854;28;20060;-73
2021/09/08 04:07:28;;;;;;;12.85;9.57;;;;;;;;;;5024999;28;20036;-73
2021/09/08 04:10:13;;;;;;;10.65;8.70;;;;;;;;;;5043439;28;20031;-72
2021/09/08 04:12:57;;;;;;;12.27;9.38;;;;;;;;;;5042755;28;20093;-72
2021/09/08 04:15:42;;;;;;;11.55;8.75;;;;;;;;;;5045862;28;20087;-72
2021/09/08 04:18:26;;;;;;;11.88;8.30;;;;;;;;;;5043374;28;20036;-72
2021/09/08 04:21:11;;;;;;;12.48;9.85;;;;;;;;;;5046738;28;20048;-72
2021/09/08 04:23:55;;;;;;;10.80;8.38;;;;;;;;;;5031486;28;20052;-72
2021/09/08 04:26:40;;;;;;;11.80;9.20;;;;;;;;;;5046416;28;20120;-72
2021/09/08 04:29:24;;;;;;;11.02;8.60;;;;;;;;;;5046350;28;20036;-71
2021/09/08 04:32:09;;;;;;;10.85;8.70;;;;;;;;;;5045870;28;20040;-71
2021/09/08 04:34:53;;;;;;;14.05;9.32;;;;;;;;;;5046171;28;20064;-71
2021/09/08 04:37:38;;;;;;;11.98;9.50;;;;;;;;;;5026535;28;21698;-72
2021/09/08 04:40:22;;;;;;;10.63;8.20;;;;;;;;;;5032768;28;20116;-72
2021/09/08 04:43:06;;;;;;;11.35;9.02;;;;;;;;;;5030284;28;20052;-72
2021/09/08 04:45:51;;;;;;;10.90;8.70;;;;;;;;;;5034448;28;20409;-72
2021/09/08 04:48:35;;;;;;;11.18;8.38;;;;;;;;;;5039538;28;20044;-73
2021/09/08 04:51:20;;;;;;;11.50;8.93;;;;;;;;;;5032933;28;20747;-73
2021/09/08 04:54:04;;;;;;;12.75;8.88;;;;;;;;;;5050123;28;20032;-72
2021/09/08 04:56:49;;;;;;;11.27;8.70;;;;;;;;;;5050230;28;20079;-73
2021/09/08 04:59:34;;;;;;;10.30;8.80;;;;;;;;;;5030455;28;20105;-73
2021/09/08 05:02:18;;;;;;;10.90;8.48;;;;;;;;;;5049775;28;20548;-72
2021/09/08 05:05:03;;;;;;;12.13;8.60;;;;;;;;;;5049061;28;20036;-72
2021/09/08 05:07:48;;;;;;;11.60;8.93;;;;;;;;;;5035410;28;20047;-73
2021/09/08 05:10:32;;;;;;;13.02;8.88;;;;;;;;;;5049400;28;20079;-73
2021/09/08 05:13:17;;;;;;;12.02;9.10;;;;;;;;;;5049638;28;20091;-73
2021/09/08 05:16:01;;;;;;;13.07;9.50;;;;;;;;;;5048688;28;20039;-73
2021/09/08 05:18:46;;;;;;;14.45;10.90;;;;;;;;;;5048805;28;20102;-73
2021/09/08 05:21:31;;;;;;;14.63;10.25;;;;;;;;;;5049112;28;20044;-74
2021/09/08 05:24:15;;;;;;;13.40;9.05;;;;;;;;;;5019501;28;20080;-73
2021/09/08 05:26:59;;;;;;;12.52;9.32;;;;;;;;;;5039733;28;20048;-73
2021/09/08 05:29:44;;;;;;;13.40;9.98;;;;;;;;;;5050045;28;20043;-72
2021/09/08 05:32:28;;;;;;;13.85;10.25;;;;;;;;;;5048127;28;20083;-73
2021/09/08 05:35:13;;;;;;;13.80;10.13;;;;;;;;;;5048650;28;20052;-73
2021/09/08 05:37:58;;;;;;;14.23;9.98;;;;;;;;;;5048041;28;20394;-72
2021/09/08 05:40:43;;;;;;;12.70;9.20;;;;;;;;;;5034100;28;20150;-73
2021/09/08 05:43:27;;;;;;;10.10;8.55;;;;;;;;;;5048177;28;20056;-74
2021/09/08 05:46:12;;;;;;;11.20;8.80;;;;;;;;;;5049284;28;20091;-73
2021/09/08 05:48:56;;;;;;;12.10;9.32;;;;;;;;;;5037596;28;20094;-73
2021/09/08 05:51:41;;;;;;;12.13;9.52;;;;;;;;;;5034170;28;20043;-73
2021/09/08 05:54:26;;;;;;;11.05;8.52;;;;;;;;;;5031063;28;20031;-72
2021/09/08 05:57:10;;;;;;;14.45;10.45;;;;;;;;;;5029480;28;20587;-73
2021/09/08 05:59:55;;;;;;;16.13;11.00;;;;;;;;;;5039366;28;20051;-73
2021/09/08 06:02:39;;;;;;;13.82;10.60;;;;;;;;;;5047050;28;20099;-73
2021/09/08 06:05:24;;;;;;;12.35;9.10;;;;;;;;;;5049042;28;20031;-73
2021/09/08 06:08:08;;;;;;;15.52;11.02;;;;;;;;;;5049289;28;20048;-73
2021/09/08 06:10:53;;;;;;;13.05;9.73;;;;;;;;;;5047874;28;20082;-73
2021/09/08 06:13:38;;;;;;;14.20;10.02;;;;;;;;;;5045347;28;20106;-73
2021/09/08 06:16:23;;;;;;;13.48;10.68;;;;;;;;;;5047353;28;20116;-75
2021/09/08 06:19:07;;;;;;;13.30;10.05;;;;;;;;;;5047752;28;20040;-73
2021/09/08 06:21:52;;;;;;;13.98;9.48;;;;;;;;;;5047342;28;20048;-73
2021/09/08 06:24:37;;;;;;;14.85;10.82;;;;;;;;;;5047069;28;20043;-74
2021/09/08 06:27:22;;;;;;;13.05;10.48;;;;;;;;;;5048763;28;20036;-73
2021/09/08 06:30:07;;;;;;;13.32;8.85;;;;;;;;;;5047493;28;20608;-74
2021/09/08 06:32:51;;;;;;;13.18;10.25;;;;;;;;;;5046937;28;20056;-73
2021/09/08 06:35:36;;;;;;;12.07;9.80;;;;;;;;;;5026104;28;20106;-73
2021/09/08 06:38:20;;;;;;;10.65;8.60;;;;;;;;;;5021205;28;20090;-73
2021/09/08 06:41:05;;;;;;;14.52;10.25;;;;;;;;;;5047182;28;20512;-73
2021/09/08 06:43:49;;;;;;;11.10;9.13;;;;;;;;;;5047157;28;20044;-73
2021/09/08 06:46:34;;;;;;;13.25;9.70;;;;;;;;;;5046773;28;20567;-73
2021/09/08 06:49:19;;;;;;;13.27;9.63;;;;;;;;;;5047558;28;20152;-73
2021/09/08 06:52:04;;;;;;;13.35;10.43;;;;;;;;;;5030645;28;20086;-73
2021/09/08 06:54:49;;;;;;;13.43;9.93;;;;;;;;;;5048059;28;20071;-73
2021/09/08 06:57:33;;;;;;;11.55;9.07;;;;;;;;;;5047084;28;20098;-73
2021/09/08 07:00:18;;;;;;;13.60;9.85;;;;;;;;;;5043047;28;20036;-74
2021/09/08 07:03:02;;;;;;;12.63;9.20;;;;;;;;;;5027058;28;20636;-73
2021/09/08 07:05:47;;;;;;;11.40;8.55;;;;;;;;;;5032527;28;20044;-73
2021/09/08 07:08:31;;;;;;;13.52;10.68;;;;;;;;;;5047034;28;20731;-74
2021/09/08 07:11:17;;;;;;;13.80;9.80;;;;;;;;;;5032146;28;20055;-73
2021/09/08 07:14:01;;;;;;;13.07;9.40;;;;;;;;;;5025788;28;20419;-73
2021/09/08 07:16:46;;;;;;;12.52;9.93;;;;;;;;;;5031576;28;20048;-74
2021/09/08 07:19:33;;;;;;;12.70;9.75;;;;;;;;;;5046059;28;20078;-71
2021/09/08 07:22:18;;;;;;;11.82;9.32;;;;;;;;;;5046586;28;20043;-74
2021/09/08 07:25:02;;;;;;;10.93;9.00;;;;;;;;;;5045691;28;20559;-74
2021/09/08 07:27:47;;;;;;;12.23;9.82;;;;;;;;;;5045584;28;20496;-73
2021/09/08 07:30:32;;;;;;;11.85;9.45;;;;;;;;;;5045023;28;20035;-73
2021/09/08 07:33:17;;;;;;;10.70;8.48;;;;;;;;;;5043993;28;20063;-71
2021/09/08 07:36:01;;;;;;;10.75;8.63;;;;;;;;;;5038967;28;20425;-73
2021/09/08 07:38:46;;;;;;;13.85;10.63;;;;;;;;;;5036199;28;20087;-72
2021/09/08 07:41:31;;;;;;;11.55;9.32;;;;;;;;;;5037663;28;20528;-73
2021/09/08 07:44:15;;;;;;;10.98;8.88;;;;;;;;;;5046656;28;20138;-74
2021/09/08 07:47:00;;;;;;;14.13;10.52;;;;;;;;;;5040913;28;20039;-73
2021/09/08 07:49:44;;;;;;;12.40;9.13;;;;;;;;;;5052807;28;20051;-74
2021/09/08 07:52:29;;;;;;;11.98;9.63;;;;;;;;;;5033210;28;20678;-74
2021/09/08 07:55:13;;;;;;;12.25;9.65;;;;;;;;;;5041424;28;20044;-74
2021/09/08 07:57:58;;;;;;;13.38;9.82;;;;;;;;;;5046811;28;20090;-71
2021/09/08 08:00:42;;;;;;;13.10;9.52;;;;;;;;;;5046564;28;20043;-74
2021/09/08 08:03:27;;;;;;;10.63;8.43;;;;;;;;;;5047605;28;20091;-73
2021/09/08 08:06:11;;;;;;;13.95;9.63;;;;;;;;;;5045686;28;20051;-74
2021/09/08 08:08:55;;;;;;;11.98;8.90;;;;;;;;;;5046096;28;20211;-71
2021/09/08 08:11:40;;;;;;;11.73;8.88;;;;;;;;;;5047424;28;20523;-71
2021/09/08 08:14:25;;;;;;;11.45;9.50;;;;;;;;;;5046193;28;20052;-71
2021/09/08 08:17:10;;;;;;;14.38;10.68;;;;;;;;;;5047591;28;20090;-71
2021/09/08 08:19:54;;;;;;;11.23;9.13;;;;;;;;;;5044366;28;20426;-72
2021/09/08 08:22:39;;;;;;;12.55;9.10;;;;;;;;;;5044979;28;20110;-72
2021/09/08 08:25:28;;;;;;;21.67;9.25;;;;;;;;;;5044478;28;20039;-73
2021/09/08 08:28:13;;;;;;;14.68;10.65;;;;;;;;;;5031678;28;20060;-72
2021/09/08 08:31:01;;;;;;;12.23;8.88;;;;;;;;;;5046408;28;20098;-73
2021/09/08 08:33:49;;;;;;;13.18;9.23;;;;;;;;;;5045044;28;20082;-75
2021/09/08 08:36:33;;;;;;;13.43;8.98;;;;;;;;;;5033264;28;20136;-75
2021/09/08 08:39:18;;;;;;;10.73;8.43;;;;;;;;;;5047044;28;20155;-73
2021/09/08 08:42:02;;;;;;;12.38;8.10;;;;;;;;;;5043259;28;20425;-72
2021/09/08 08:44:47;;;;;;;10.68;8.98;;;;;;;;;;5044359;28;20158;-72
2021/09/08 08:47:34;;;;;;;13.40;9.27;;;;;;;;;;5044314;28;20044;-74
2021/09/08 08:50:19;;;;;;;11.52;9.57;;;;;;;;;;5042692;28;20075;-72
2021/09/08 08:53:03;;;;;;;11.50;9.20;;;;;;;;;;5041245;28;20363;-72
2021/09/08 08:55:48;;;;;;;12.43;8.75;;;;;;;;;;5037016;28;20536;-73
2021/09/08 08:58:32;;;;;;;12.70;9.30;;;;;;;;;;5041093;28;20040;-72
2021/09/08 09:01:21;;;;;;;10.95;8.40;;;;;;;;;;5038734;28;20528;-72
2021/09/08 09:04:06;;;;;;;11.30;8.32;;;;;;;;;;5039295;28;20052;-72
2021/09/08 09:06:50;;;;;;;9.68;8.00;;;;;;;;;;5045212;28;20452;-72
2021/09/08 09:09:35;;;;;;;10.35;8.52;;;;;;;;;;5043488;28;20410;-71
2021/09/08 09:12:23;;;;;;;12.75;9.65;;;;;;;;;;5036809;28;20145;-72
2021/09/08 09:15:12;;;;;;;11.30;8.77;;;;;;;;;;5029463;28;20063;-72
2021/09/08 09:17:56;;;;;;;9.38;8.35;;;;;;;;;;5011565;28;20047;-72
2021/09/08 09:20:43;;;;;;;10.95;7.88;;;;;;;;;;5041427;28;20086;-72
2021/09/08 09:23:30;;;;;;;12.05;8.57;;;;;;;;;;5024761;28;20052;-72
2021/09/08 09:26:19;;;;;;;10.02;7.90;;;;;;;;;;5029441;28;20047;-72
2021/09/08 09:29:05;;;;;;;14.05;8.15;;;;;;;;;;5042107;28;20098;-72
2021/09/08 09:31:53;;;;;;;12.35;8.75;;;;;;;;;;5040370;28;20044;-71
2021/09/08 09:34:41;;;;;;;11.35;7.85;;;;;;;;;;5033884;28;20036;-72
2021/09/08 09:37:25;;;;;;;12.15;8.80;;;;;;;;;;5015346;28;20075;-70
2021/09/08 09:40:10;;;;;;;10.93;8.05;;;;;;;;;;5034306;28;20040;-72
2021/09/08 09:42:55;;;;;;;10.52;7.40;;;;;;;;;;5038738;28;20390;-72
2021/09/08 09:45:40;;;;;;;9.55;7.63;;;;;;;;;;5026933;28;20040;-71
2021/09/08 09:48:25;;;;;;;11.45;8.30;;;;;;;;;;5046062;28;20162;-71
2021/09/08 09:51:10;;;;;;;16.75;8.95;;;;;;;;;;5045569;28;20039;-71
2021/09/08 09:53:55;;;;;;;11.18;8.27;;;;;;;;;;5032953;28;20032;-71
2021/09/08 09:56:39;;;;;;;11.60;8.18;;;;;;;;;;5046552;28;20040;-71
2021/09/08 09:59:24;;;;;;;11.15;8.10;;;;;;;;;;5043769;28;20539;-71
2021/09/08 10:02:09;;;;;;;11.65;8.52;;;;;;;;;;5045698;28;20039;-73
2021/09/08 10:04:54;;;;;;;12.25;8.27;;;;;;;;;;5044700;28;20079;-73
2021/09/08 10:07:38;;;;;;;13.90;8.65;;;;;;;;;;5048222;28;20047;-72
2021/09/08 10:10:27;;;;;;;9.95;7.78;;;;;;;;;;5046053;28;20089;-72
2021/09/08 10:13:12;;;;;;;11.23;8.40;;;;;;;;;;5036023;28;20083;-72
2021/09/08 10:15:57;;;;;;;12.32;8.35;;;;;;;;;;5030703;28;20110;-72
2021/09/08 10:18:41;;;;;;;13.30;8.02;;;;;;;;;;5019314;28;20048;-73
2021/09/08 10:21:26;;;;;;;10.23;8.02;;;;;;;;;;5039243;28;20568;-72
2021/09/08 10:24:10;;;;;;;10.02;8.25;;;;;;;;;;5047173;28;20588;-72
2021/09/08 10:26:55;;;;;;;10.90;8.07;;;;;;;;;;5047537;28;20181;-73
2021/09/08 10:29:39;;;;;;;12.95;8.52;;;;;;;;;;5046969;28;20114;-72
2021/09/08 10:32:24;;;;;;;12.52;8.27;;;;;;;;;;5025146;28;20036;-72
2021/09/08 10:35:10;;;;;;;13.25;8.23;;;;;;;;;;5045741;28;20056;-72
2021/09/08 10:37:54;;;;;;;12.85;7.57;;;;;;;;;;5040568;28;20047;-72
2021/09/08 10:40:39;;;;;;;9.02;7.30;;;;;;;;;;5040295;28;20231;-72
2021/09/08 10:43:32;;;;;;;8.43;7.53;;;;;;;;;;5029533;28;20113;-72
2021/09/08 10:46:17;;;;;;;9.93;8.25;;;;;;;;;;5028791;28;20091;-74
2021/09/08 10:49:01;;;;;;;10.82;7.63;;;;;;;;;;5012678;28;20150;-72
2021/09/08 10:51:45;;;;;;;10.57;7.72;;;;;;;;;;5033010;28;20497;-72
2021/09/08 10:54:30;;;;;;;9.65;7.68;;;;;;;;;;5014987;28;20040;-71
2021/09/08 10:57:35;;;;;;;10.75;7.72;;;;;;;;;;5035359;28;20422;-71
2021/09/08 11:00:21;;;;;;;11.52;7.18;;;;;;;;;;5045531;28;20102;-73
2021/09/08 11:03:06;;;;;;;9.40;7.07;;;;;;;;;;5047863;28;20524;-72
2021/09/08 11:05:51;;;;;;;11.82;7.43;;;;;;;;;;5041956;28;20036;-72
2021/09/08 11:08:35;;;;;;;10.60;7.90;;;;;;;;;;5046383;28;20139;-73
2021/09/08 11:11:20;;;;;;;10.93;7.80;;;;;;;;;;5032623;28;20144;-71
2021/09/08 11:14:05;;;;;;;10.85;7.60;;;;;;;;;;5031270;28;20047;-71
2021/09/08 11:16:50;;;;;;;11.68;7.43;;;;;;;;;;5032413;28;20075;-71
2021/09/08 11:19:34;;;;;;;10.90;7.95;;;;;;;;;;5045444;28;20394;-71
2021/09/08 11:22:19;;;;;;;9.02;7.60;;;;;;;;;;5044892;28;20547;-72
2021/09/08 11:25:07;;;;;;;11.65;7.35;;;;;;;;;;5046121;28;20676;-72
2021/09/08 11:27:51;;;;;;;11.88;7.60;;;;;;;;;;5045581;28;21159;-71
2021/09/08 11:30:36;;;;;;;10.30;7.82;;;;;;;;;;5045773;28;20071;-72
2021/09/08 11:33:21;;;;;;;8.90;7.07;;;;;;;;;;5045653;28;20068;-72
2021/09/08 11:36:12;;;;;;;8.45;6.95;;;;;;;;;;5045801;28;20071;-72
2021/09/08 11:38:58;;;;;;;11.25;8.05;;;;;;;;;;5046838;28;20047;-72
2021/09/08 11:41:53;;;;;;;9.85;7.63;;;;;;;;;;5045680;28;20067;-71
2021/09/08 11:44:38;;;;;;;10.50;8.25;;;;;;;;;;5045629;28;20082;-72
2021/09/08 11:47:22;;;;;;;9.52;7.85;;;;;;;;;;5044300;28;20094;-72
2021/09/08 11:50:07;;;;;;;9.88;7.40;;;;;;;;;;5042396;28;20500;-72
2021/09/08 11:52:56;;;;;;;9.98;8.25;;;;;;;;;;5028236;28;20461;-71
2021/09/08 11:55:41;;;;;;;10.10;8.10;;;;;;;;;;5031027;28;20044;-71
2021/09/08 11:58:25;;;;;;;9.90;7.90;;;;;;;;;;5036026;28;20862;-72
2021/09/08 12:01:11;;;;;;;9.63;7.95;;;;;;;;;;5042880;28;20087;-72
2021/09/08 12:03:56;;;;;;;11.23;7.70;;;;;;;;;;5030857;28;20071;-72
2021/09/08 12:06:56;;;;;;;11.43;8.27;;;;;;;;;;5030627;28;20109;-72
2021/09/08 12:09:43;;;;;;;9.30;7.10;;;;;;;;;;5046305;28;20101;-75
2021/09/08 12:12:27;;;;;;;11.45;8.45;;;;;;;;;;5040659;28;20044;-72
2021/09/08 12:15:12;;;;;;;9.60;7.53;;;;;;;;;;5045036;28;20110;-72
2021/09/08 12:18:13;;;;;;;10.07;8.00;;;;;;;;;;5043549;28;20099;-72
2021/09/08 12:21:16;;;;;;;10.50;8.03;;;;;;;;;;5042919;28;20536;-72
2021/09/08 12:24:17;;;;;;;9.25;7.80;;;;;;;;;;5043270;28;20047;-71
2021/09/08 12:27:02;;;;;;;8.50;7.30;;;;;;;;;;5044559;28;20178;-72
2021/09/08 12:29:47;;;;;;;8.73;7.28;;;;;;;;;;5042457;28;20047;-72
2021/09/08 12:32:47;;;;;;;9.52;7.32;;;;;;;;;;5026773;28;21027;-72
2021/09/08 12:35:36;;;;;;;8.38;7.53;;;;;;;;;;5028462;28;20048;-72
2021/09/08 12:38:30;;;;;;;11.02;7.80;;;;;;;;;;5029631;28;20060;-71
2021/09/08 12:41:16;;;;;;;9.65;7.57;;;;;;;;;;5036606;28;20083;-71
2021/09/08 12:44:01;;;;;;;9.00;8.10;;;;;;;;;;5043969;28;20071;-72
2021/09/08 12:46:49;;;;;;;9.63;7.57;;;;;;;;;;5019903;28;20750;-72
2021/09/08 12:49:34;;;;;;;10.43;7.90;;;;;;;;;;5025931;28;20040;-72
2021/09/08 12:52:19;;;;;;;10.40;8.60;;;;;;;;;;5026064;28;20044;-72
2021/09/08 12:55:04;;;;;;;9.00;7.70;;;;;;;;;;5044180;28;20044;-72
2021/09/08 12:57:53;;;;;;;10.15;7.57;;;;;;;;;;5027813;28;20075;-72
2021/09/08 13:00:38;;;;;;;11.30;7.55;;;;;;;;;;5044430;28;20557;-71
2021/09/08 13:03:23;;;;;;;9.20;7.80;;;;;;;;;;5044034;28;20102;-71
2021/09/08 13:06:07;;;;;;;10.88;7.55;;;;;;;;;;5041148;28;20043;-71
2021/09/08 13:08:52;;;;;;;8.55;7.65;;;;;;;;;;5038599;28;20691;-72
2021/09/08 13:11:36;;;;;;;9.00;7.47;;;;;;;;;;5042637;28;20036;-71
2021/09/08 13:14:21;;;;;;;10.23;7.85;;;;;;;;;;5033553;28;20556;-72
2021/09/08 13:17:05;;;;;;;9.93;7.40;;;;;;;;;;5029820;28;20470;-71
2021/09/08 13:19:50;;;;;;;10.23;7.38;;;;;;;;;;5046639;28;20039;-72
2021/09/08 13:22:34;;;;;;;8.65;7.68;;;;;;;;;;5046814;28;20505;-72
2021/09/08 13:25:19;;;;;;;11.25;7.72;;;;;;;;;;5049155;28;20039;-71
2021/09/08 13:28:03;;;;;;;9.57;7.72;;;;;;;;;;5047343;28;20508;-72
2021/09/08 13:30:48;;;;;;;10.35;7.60;;;;;;;;;;5035146;28;20036;-72
2021/09/08 13:33:33;;;;;;;12.23;7.68;;;;;;;;;;5047673;28;20086;-71
2021/09/08 13:36:17;;;;;;;12.88;7.88;;;;;;;;;;5030914;28;20547;-71
2021/09/08 13:39:03;;;;;;;9.25;7.47;;;;;;;;;;5044066;28;20532;-71
2021/09/08 13:41:48;;;;;;;9.90;7.75;;;;;;;;;;5025717;28;20117;-73
2021/09/08 13:44:33;;;;;;;9.45;7.50;;;;;;;;;;5048072;28;20186;-71
2021/09/08 13:47:17;;;;;;;11.20;7.45;;;;;;;;;;5025104;28;20035;-72
2021/09/08 13:50:02;;;;;;;10.73;7.95;;;;;;;;;;5046517;28;20102;-71
2021/09/08 13:52:46;;;;;;;11.32;7.80;;;;;;;;;;5037363;28;20044;-72
2021/09/08 13:55:30;;;;;;;11.75;7.78;;;;;;;;;;5030664;28;20067;-75
2021/09/08 13:58:15;;;;;;;9.80;7.65;;;;;;;;;;5048711;28;20032;-72
2021/09/08 14:01:00;;;;;;;11.90;8.07;;;;;;;;;;5037792;28;20036;-71
2021/09/08 14:03:45;;;;;;;10.13;7.20;;;;;;;;;;5045388;28;20055;-72
2021/09/08 14:06:29;;;;;;;10.70;7.82;;;;;;;;;;5024792;28;20670;-71
2021/09/08 14:09:14;;;;;;;11.35;8.45;;;;;;;;;;5047404;28;20476;-72
2021/09/08 14:11:58;;;;;;;9.88;8.00;;;;;;;;;;5047207;28;20071;-71
2021/09/08 14:14:42;;;;;;;13.85;8.23;;;;;;;;;;5047458;28;20040;-72
2021/09/08 14:17:27;;;;;;;9.88;8.02;;;;;;;;;;5045382;28;20094;-72
2021/09/08 14:20:12;;;;;;;11.73;8.38;;;;;;;;;;5047379;28;20599;-71
2021/09/08 14:22:57;;;;;;;11.27;8.40;;;;;;;;;;5044484;28;20098;-71
2021/09/08 14:25:41;;;;;;;9.18;7.47;;;;;;;;;;5026983;28;20140;-72
2021/09/08 14:28:26;;;;;;;10.15;8.05;;;;;;;;;;5038118;28;20110;-73
2021/09/08 14:31:11;;;;;;;12.27;7.65;;;;;;;;;;5027575;28;20045;-72
2021/09/08 14:33:55;;;;;;;9.18;8.02;;;;;;;;;;5039363;28;20071;-73
2021/09/08 14:36:40;;;;;;;9.90;7.95;;;;;;;;;;5045321;28;20032;-72
2021/09/08 14:39:25;;;;;;;9.23;7.60;;;;;;;;;;5045924;28;20044;-73
2021/09/08 14:42:10;;;;;;;11.00;7.88;;;;;;;;;;5046140;28;20401;-72
2021/09/08 14:44:55;;;;;;;12.02;8.20;;;;;;;;;;5046787;28;20075;-72
2021/09/08 14:47:39;;;;;;;9.98;7.70;;;;;;;;;;5044738;28;20062;-72
2021/09/08 14:50:24;;;;;;;9.73;8.18;;;;;;;;;;5046734;28;20048;-72
2021/09/08 14:53:09;;;;;;;10.05;7.68;;;;;;;;;;5026102;28;20219;-72
2021/09/08 14:55:53;;;;;;;11.38;7.88;;;;;;;;;;5043224;28;20052;-72
2021/09/08 14:58:38;;;;;;;10.63;8.02;;;;;;;;;;5040289;28;20087;-75
2021/09/08 15:01:23;;;;;;;10.30;7.75;;;;;;;;;;5025858;28;20052;-72
2021/09/08 15:04:07;;;;;;;8.90;7.88;;;;;;;;;;5026267;28;20080;-73
2021/09/08 15:06:52;;;;;;;10.48;7.88;;;;;;;;;;5031731;28;20461;-72
2021/09/08 15:09:36;;;;;;;9.32;7.82;;;;;;;;;;5046260;28;20052;-72
2021/09/08 15:12:20;;;;;;;10.07;7.95;;;;;;;;;;5045159;28;20102;-72
2021/09/08 15:15:06;;;;;;;9.38;7.47;;;;;;;;;;5040460;28;20676;-72
2021/09/08 15:17:51;;;;;;;10.77;7.60;;;;;;;;;;5042343;28;20089;-72
2021/09/08 15:20:36;;;;;;;10.18;7.47;;;;;;;;;;5046251;28;20182;-72
2021/09/08 15:23:20;;;;;;;10.10;7.75;;;;;;;;;;5045766;28;20121;-72
2021/09/08 15:26:05;;;;;;;9.27;7.13;;;;;;;;;;5044777;28;20083;-72
2021/09/08 15:28:50;;;;;;;8.52;7.55;;;;;;;;;;5046954;28;20047;-72
2021/09/08 15:31:34;;;;;;;8.40;7.10;;;;;;;;;;5046260;28;20044;-75
2021/09/08 15:34:19;;;;;;;9.50;7.28;;;;;;;;;;5045743;28;20056;-72
2021/09/08 15:37:03;;;;;;;10.25;6.97;;;;;;;;;;5045808;28;20149;-73
2021/09/08 15:39:48;;;;;;;9.18;7.80;;;;;;;;;;5031900;28;20082;-72
2021/09/08 15:42:32;;;;;;;8.93;6.88;;;;;;;;;;5030749;28;20051;-72
2021/09/08 15:45:17;;;;;;;11.25;7.50;;;;;;;;;;5031786;28;20799;-72
2021/09/08 15:48:02;;;;;;;9.20;7.65;;;;;;;;;;5045497;28;20754;-72
2021/09/08 15:50:47;;;;;;;8.85;7.72;;;;;;;;;;5038749;28;20141;-72
2021/09/08 15:53:32;;;;;;;9.75;7.65;;;;;;;;;;5044147;28;20036;-72
2021/09/08 15:56:16;;;;;;;9.07;7.50;;;;;;;;;;5044278;28;20083;-72
2021/09/08 15:59:02;;;;;;;9.98;7.72;;;;;;;;;;5044694;28;20110;-73
2021/09/08 16:01:47;;;;;;;8.70;7.15;;;;;;;;;;5043716;28;20043;-72
2021/09/08 16:04:31;;;;;;;9.02;7.82;;;;;;;;;;5045099;28;20051;-72
2021/09/08 16:07:18;;;;;;;10.55;7.80;;;;;;;;;;5044135;28;20043;-72
2021/09/08 16:10:03;;;;;;;9.32;7.10;;;;;;;;;;5037840;28;20044;-73
2021/09/08 16:12:48;;;;;;;11.38;7.43;;;;;;;;;;5030504;28;20134;-73
2021/09/08 16:15:33;;;;;;;9.65;7.35;;;;;;;;;;5044966;28;20044;-73